createdAt,value
2024-02-18T00:01:38.651Z,2.63
2024-02-18T00:04:06.192Z,3.13
2024-02-18T00:06:35.521Z,2.97
2024-02-18T00:09:03.112Z,2.97
2024-02-18T00:11:30.597Z,3.40
2024-02-18T00:13:58.040Z,3.50
2024-02-18T00:16:25.353Z,3.40
2024-02-18T00:18:52.809Z,4.38
2024-02-18T00:21:20.427Z,4.50
2024-02-18T00:23:49.152Z,4.50
2024-02-18T00:26:16.624Z,2.83
2024-02-18T00:28:44.335Z,3.05
2024-02-18T00:31:11.666Z,3.42
2024-02-18T00:33:39.313Z,3.65
2024-02-18T00:36:07.793Z,3.42
2024-02-18T00:38:35.238Z,3.08
2024-02-18T00:41:04.654Z,3.53
2024-02-18T00:43:31.927Z,2.92
2024-02-18T00:45:59.227Z,3.40
2024-02-18T00:48:26.858Z,3.53
2024-02-18T00:50:54.175Z,3.85
2024-02-18T00:53:21.574Z,3.60
2024-02-18T00:55:49.030Z,4.13
2024-02-18T00:58:17.841Z,3.50
2024-02-18T01:00:45.160Z,4.07
2024-02-18T01:03:12.668Z,3.53
2024-02-18T01:05:40.041Z,3.58
2024-02-18T01:08:16.423Z,4.10
2024-02-18T01:10:43.854Z,3.80
2024-02-18T01:13:11.298Z,3.33
2024-02-18T01:15:40.190Z,3.35
2024-02-18T01:18:07.724Z,3.42
2024-02-18T01:20:35.160Z,3.72
2024-02-18T01:23:02.425Z,2.90
2024-02-18T01:25:36.976Z,3.22
2024-02-18T01:28:04.999Z,2.83
2024-02-18T01:30:32.637Z,3.00
2024-02-18T01:33:01.500Z,3.67
2024-02-18T01:35:28.824Z,3.28
2024-02-18T01:37:56.112Z,3.25
2024-02-18T01:40:23.358Z,3.40
2024-02-18T01:42:50.903Z,3.60
2024-02-18T01:45:18.313Z,3.42
2024-02-18T01:47:45.824Z,3.40
2024-02-18T01:50:14.904Z,3.38
2024-02-18T01:52:44.845Z,4.38
2024-02-18T01:55:13.498Z,2.88
2024-02-18T01:57:42.673Z,4.28
2024-02-18T02:00:12.670Z,5.10
2024-02-18T02:02:40.628Z,4.25
2024-02-18T02:05:12.760Z,3.78
2024-02-18T02:07:42.147Z,3.58
2024-02-18T02:10:10.586Z,2.95
2024-02-18T02:12:38.109Z,3.55
2024-02-18T02:15:07.033Z,2.80
2024-02-18T02:17:34.266Z,3.63
2024-02-18T02:20:01.980Z,3.90
2024-02-18T02:22:29.624Z,3.63
2024-02-18T02:24:58.493Z,3.35
2024-02-18T02:27:30.894Z,3.15
2024-02-18T02:30:00.161Z,3.72
2024-02-18T02:32:27.727Z,3.25
2024-02-18T02:34:55.207Z,3.55
2024-02-18T02:37:22.700Z,3.88
2024-02-18T02:39:50.231Z,3.65
2024-02-18T02:42:18.026Z,3.55
2024-02-18T02:44:45.273Z,3.90
2024-02-18T02:47:14.302Z,3.25
2024-02-18T02:49:41.781Z,2.83
2024-02-18T02:52:09.174Z,3.55
2024-02-18T02:54:36.638Z,3.38
2024-02-18T02:57:05.012Z,3.42
2024-02-18T02:59:32.384Z,3.63
2024-02-18T03:02:00.151Z,4.25
2024-02-18T03:04:29.060Z,3.00
2024-02-18T03:06:59.813Z,2.90
2024-02-18T03:09:27.195Z,3.00
2024-02-18T03:11:54.619Z,3.45
2024-02-18T03:14:22.195Z,2.85
2024-02-18T03:16:49.783Z,2.35
2024-02-18T03:19:17.167Z,3.42
2024-02-18T03:21:46.224Z,2.65
2024-02-18T03:24:13.520Z,3.22
2024-02-18T03:26:41.236Z,3.53
2024-02-18T03:29:08.506Z,3.13
2024-02-18T03:31:35.951Z,2.97
2024-02-18T03:34:03.755Z,3.15
2024-02-18T03:36:31.338Z,3.25
2024-02-18T03:39:00.883Z,4.43
2024-02-18T03:41:28.251Z,5.88
2024-02-18T03:43:55.424Z,7.20
2024-02-18T03:46:22.718Z,8.70
2024-02-18T03:48:50.297Z,6.97
2024-02-18T03:51:17.605Z,5.15
2024-02-18T03:53:44.839Z,5.35
2024-02-18T03:56:13.602Z,3.78
2024-02-18T03:58:40.962Z,4.97
2024-02-18T04:01:08.419Z,5.35
2024-02-18T04:03:36.311Z,5.68
2024-02-18T04:06:04.314Z,12.13
2024-02-18T04:08:31.875Z,10.88
2024-02-18T04:10:59.268Z,11.20
2024-02-18T04:13:28.235Z,5.20
2024-02-18T04:15:55.649Z,4.35
2024-02-18T04:18:23.277Z,4.03
2024-02-18T04:20:50.654Z,4.13
2024-02-18T04:23:18.162Z,4.07
2024-02-18T04:25:45.778Z,4.40
2024-02-18T04:28:13.152Z,4.68
2024-02-18T04:30:41.724Z,4.82
2024-02-18T04:33:09.315Z,5.10
2024-02-18T04:35:36.592Z,5.03
2024-02-18T04:38:04.416Z,8.00
2024-02-18T04:40:32.171Z,6.72
2024-02-18T04:42:59.571Z,6.55
2024-02-18T04:45:26.975Z,7.32
2024-02-18T04:47:55.943Z,8.80
2024-02-18T04:50:23.316Z,10.52
2024-02-18T04:52:50.511Z,11.57
2024-02-18T04:55:18.146Z,12.85
2024-02-18T04:57:45.513Z,13.00
2024-02-18T05:00:14.255Z,14.93
2024-02-18T05:02:41.656Z,14.07
2024-02-18T05:05:10.488Z,14.70
2024-02-18T05:07:37.779Z,14.02
2024-02-18T05:10:06.642Z,16.90
2024-02-18T05:12:34.021Z,20.73
2024-02-18T05:15:01.298Z,20.38
2024-02-18T05:17:28.617Z,16.45
2024-02-18T05:19:56.245Z,15.55
2024-02-18T05:22:24.850Z,14.65
2024-02-18T05:24:52.523Z,16.80
2024-02-18T05:27:20.023Z,16.33
2024-02-18T05:29:47.325Z,6.55
2024-02-18T05:32:14.767Z,10.60
2024-02-18T05:34:42.392Z,10.27
2024-02-18T05:37:09.792Z,8.68
2024-02-18T05:39:38.569Z,8.85
2024-02-18T05:42:06.348Z,4.68
2024-02-18T05:44:34.022Z,5.40
2024-02-18T05:47:01.541Z,5.20
2024-02-18T05:49:29.121Z,4.72
2024-02-18T05:51:56.629Z,9.25
2024-02-18T05:54:24.149Z,6.07
2024-02-18T05:56:52.859Z,4.93
2024-02-18T05:59:20.118Z,5.15
2024-02-18T06:01:47.785Z,5.97
2024-02-18T06:04:15.184Z,4.85
2024-02-18T06:06:42.597Z,4.88
2024-02-18T06:09:10.084Z,5.68
2024-02-18T06:11:37.631Z,7.65
2024-02-18T06:14:06.186Z,8.05
2024-02-18T06:16:33.607Z,9.88
2024-02-18T06:19:01.063Z,9.13
2024-02-18T06:21:28.442Z,7.82
2024-02-18T06:23:55.994Z,6.05
2024-02-18T06:26:23.673Z,5.88
2024-02-18T06:28:50.919Z,5.35
2024-02-18T06:31:19.648Z,5.40
2024-02-18T06:33:47.090Z,5.07
2024-02-18T06:36:14.890Z,5.57
2024-02-18T06:38:42.563Z,8.32
2024-02-18T06:41:09.881Z,8.23
2024-02-18T06:43:37.353Z,62.75
2024-02-18T06:46:12.953Z,24.70
2024-02-18T06:48:42.396Z,11.80
2024-02-18T06:51:09.833Z,6.38
2024-02-18T06:53:37.109Z,5.47
2024-02-18T06:56:07.535Z,5.75
2024-02-18T06:58:34.829Z,6.35
2024-02-18T07:01:02.336Z,7.40
2024-02-18T07:03:29.742Z,8.18
2024-02-18T07:05:58.624Z,8.50
2024-02-18T07:08:26.041Z,7.60
2024-02-18T07:10:53.354Z,7.75
2024-02-18T07:13:20.801Z,7.32
2024-02-18T07:15:48.698Z,7.93
2024-02-18T07:18:18.473Z,8.35
2024-02-18T07:20:45.829Z,7.93
2024-02-18T07:23:14.656Z,7.38
2024-02-18T07:25:42.436Z,9.00
2024-02-18T07:28:09.723Z,6.78
2024-02-18T07:30:37.161Z,6.68
2024-02-18T07:33:05.463Z,6.65
2024-02-18T07:35:32.703Z,5.00
2024-02-18T07:38:00.052Z,4.93
2024-02-18T07:40:28.898Z,4.70
2024-02-18T07:42:56.211Z,4.22
2024-02-18T07:45:23.589Z,4.50
2024-02-18T07:47:50.875Z,5.13
2024-02-18T07:50:18.382Z,5.00
2024-02-18T07:52:45.669Z,5.90
2024-02-18T07:55:13.493Z,7.82
2024-02-18T07:57:42.227Z,6.80
2024-02-18T08:00:11.291Z,7.03
2024-02-18T08:02:38.556Z,6.32
2024-02-18T08:05:07.029Z,6.00
2024-02-18T08:07:34.500Z,5.65
2024-02-18T08:10:01.989Z,5.53
2024-02-18T08:12:29.302Z,5.93
2024-02-18T08:14:58.239Z,6.15
2024-02-18T08:17:25.579Z,5.30
2024-02-18T08:19:53.047Z,5.43
2024-02-18T08:22:20.545Z,4.93
2024-02-18T08:24:47.924Z,5.25
2024-02-18T08:27:15.355Z,5.28
2024-02-18T08:29:43.480Z,5.18
2024-02-18T08:32:12.142Z,5.03
2024-02-18T08:34:39.564Z,5.10
2024-02-18T08:37:07.092Z,6.60
2024-02-18T08:39:34.560Z,6.95
2024-02-18T08:42:01.946Z,6.20
2024-02-18T08:44:29.298Z,6.68
2024-02-18T08:46:56.680Z,6.43
2024-02-18T08:49:25.570Z,6.47
2024-02-18T08:51:54.482Z,6.43
2024-02-18T08:54:21.859Z,5.82
2024-02-18T08:56:52.360Z,5.88
2024-02-18T08:59:19.902Z,5.32
2024-02-18T09:01:56.391Z,6.00
2024-02-18T09:04:25.346Z,5.63
2024-02-18T09:07:14.225Z,5.10
2024-02-18T09:09:42.008Z,5.10
2024-02-18T09:12:11.296Z,5.65
2024-02-18T09:14:38.686Z,4.95
2024-02-18T09:17:09.255Z,8.55
2024-02-18T09:19:37.991Z,5.43
2024-02-18T09:22:05.520Z,5.90
2024-02-18T09:24:33.088Z,6.30
2024-02-18T09:27:00.281Z,5.28
2024-02-18T09:29:27.655Z,5.95
2024-02-18T09:31:55.189Z,7.40
2024-02-18T09:34:22.603Z,6.93
2024-02-18T09:36:51.457Z,5.28
2024-02-18T09:39:18.695Z,5.85
2024-02-18T09:41:47.356Z,6.30
2024-02-18T09:44:15.461Z,6.72
2024-02-18T09:46:43.600Z,6.43
2024-02-18T09:49:14.034Z,10.73
2024-02-18T09:51:41.487Z,9.27
2024-02-18T09:54:11.460Z,7.53
2024-02-18T09:56:38.894Z,8.98
2024-02-18T09:59:06.324Z,6.00
2024-02-18T10:01:35.660Z,6.30
2024-02-18T10:04:03.042Z,6.05
2024-02-18T10:06:30.598Z,6.07
2024-02-18T10:08:58.098Z,5.38
2024-02-18T10:11:27.972Z,7.38
2024-02-18T10:13:58.650Z,6.82
2024-02-18T10:16:26.067Z,5.68
2024-02-18T10:18:54.993Z,4.97
2024-02-18T10:21:22.650Z,5.53
2024-02-18T10:23:50.293Z,5.72
2024-02-18T10:26:17.946Z,5.95
2024-02-18T10:28:47.641Z,5.95
2024-02-18T10:31:15.166Z,5.90
2024-02-18T10:33:42.888Z,4.68
2024-02-18T10:36:12.118Z,4.53
2024-02-18T10:38:44.889Z,6.43
2024-02-18T10:41:17.816Z,5.32
2024-02-18T10:43:50.209Z,5.88
2024-02-18T10:46:21.659Z,5.90
2024-02-18T10:48:52.154Z,5.60
2024-02-18T10:51:25.506Z,5.90
2024-02-18T10:54:03.379Z,5.03
2024-02-18T10:56:35.727Z,5.82
2024-02-18T10:59:16.879Z,5.38
2024-02-18T11:01:50.943Z,6.22
2024-02-18T11:04:19.374Z,5.18
2024-02-18T11:06:47.558Z,5.00
2024-02-18T11:09:15.270Z,5.38
2024-02-18T11:11:43.588Z,5.28
2024-02-18T11:14:13.347Z,4.97
2024-02-18T11:16:42.152Z,4.95
2024-02-18T11:19:10.709Z,5.35
2024-02-18T11:21:38.396Z,4.93
2024-02-18T11:24:08.506Z,5.55
2024-02-18T11:26:35.829Z,5.00
2024-02-18T11:29:03.995Z,6.72
2024-02-18T11:31:33.109Z,6.18
2024-02-18T11:34:00.855Z,5.38
2024-02-18T11:36:29.128Z,5.43
2024-02-18T11:41:45.834Z,13.27
2024-02-18T11:44:13.405Z,7.68
2024-02-18T11:46:50.868Z,5.95
2024-02-18T11:49:18.863Z,6.63
2024-02-18T11:52:04.615Z,5.87
2024-02-18T11:54:33.737Z,6.82
2024-02-18T11:57:01.534Z,6.80
2024-02-18T11:59:29.184Z,6.82
2024-02-18T12:01:58.974Z,7.00
2024-02-18T12:04:39.914Z,7.75
2024-02-18T12:07:21.190Z,7.13
2024-02-18T12:09:53.156Z,6.95
2024-02-18T12:12:20.847Z,6.63
2024-02-18T12:14:50.618Z,6.65
2024-02-18T12:17:19.710Z,8.15
2024-02-18T12:19:47.869Z,6.82
2024-02-18T12:23:11.484Z,6.68
2024-02-18T12:25:39.706Z,7.55
2024-02-18T12:28:09.114Z,7.75
2024-02-18T12:30:38.351Z,7.63
2024-02-18T12:36:21.582Z,6.40
2024-02-18T12:38:51.422Z,6.70
2024-02-18T12:41:19.355Z,6.07
2024-02-18T12:46:36.859Z,6.40
2024-02-18T12:49:06.814Z,6.78
2024-02-18T12:51:34.781Z,6.82
2024-02-18T12:54:02.497Z,8.10
2024-02-18T12:56:30.177Z,7.78
2024-02-18T12:58:58.475Z,7.45
2024-02-18T13:01:26.577Z,7.90
2024-02-18T13:04:09.278Z,8.13
2024-02-18T13:11:58.235Z,10.93
2024-02-18T13:14:26.002Z,8.82
2024-02-18T13:17:17.473Z,8.45
2024-02-18T13:19:45.699Z,8.60
2024-02-18T13:22:18.600Z,9.13
2024-02-18T13:24:53.258Z,7.90
2024-02-18T13:27:32.473Z,7.57
2024-02-18T13:30:15.330Z,8.20
2024-02-18T13:33:02.493Z,8.40
2024-02-18T13:35:35.812Z,9.75
2024-02-18T13:38:20.703Z,7.63
2024-02-18T13:40:48.792Z,8.15
2024-02-18T13:43:17.581Z,8.27
2024-02-18T13:45:54.774Z,7.65
2024-02-18T13:48:29.300Z,10.00
2024-02-18T13:50:57.439Z,9.27
2024-02-18T13:53:38.829Z,8.32
2024-02-18T13:56:07.531Z,8.45
2024-02-18T13:58:43.134Z,7.95
2024-02-18T14:01:14.934Z,7.93
2024-02-18T14:03:47.227Z,8.00
2024-02-18T14:06:17.710Z,8.10
2024-02-18T14:08:46.563Z,8.13
2024-02-18T14:11:14.112Z,8.63
2024-02-18T14:13:41.595Z,7.60
2024-02-18T14:16:09.644Z,8.27
2024-02-18T14:18:37.232Z,7.85
2024-02-18T14:21:05.533Z,7.78
2024-02-18T14:23:33.049Z,9.30
2024-02-18T14:26:04.605Z,7.97
2024-02-18T14:28:32.183Z,8.27
2024-02-18T14:30:59.569Z,7.25
2024-02-18T14:33:26.901Z,7.82
2024-02-18T14:35:54.445Z,7.82
2024-02-18T14:38:24.794Z,8.75
2024-02-18T14:40:52.182Z,8.75
2024-02-18T14:43:20.915Z,8.38
2024-02-18T14:45:48.177Z,8.40
2024-02-18T14:48:15.534Z,9.02
2024-02-18T14:50:43.066Z,8.73
2024-02-18T14:53:10.532Z,8.98
2024-02-18T14:55:37.884Z,9.45
2024-02-18T14:58:05.410Z,11.48
2024-02-18T15:00:34.260Z,11.70
2024-02-18T15:03:01.591Z,8.60
2024-02-18T15:05:28.980Z,8.77
2024-02-18T15:08:27.449Z,7.97
2024-02-18T15:10:56.536Z,7.35
2024-02-18T15:13:23.829Z,12.82
2024-02-18T15:15:52.578Z,8.95
2024-02-18T15:18:20.573Z,9.90
2024-02-18T15:20:47.948Z,12.77
2024-02-18T15:23:15.541Z,21.45
2024-02-18T15:25:43.280Z,20.13
2024-02-18T15:28:11.013Z,13.65
2024-02-18T15:30:38.359Z,13.18
2024-02-18T15:33:07.418Z,11.27
2024-02-18T15:35:34.719Z,8.38
2024-02-18T15:38:02.018Z,9.52
2024-02-18T15:40:29.608Z,21.65
2024-02-18T15:42:57.104Z,21.35
2024-02-18T15:45:24.422Z,14.52
2024-02-18T15:47:51.938Z,11.95
2024-02-18T15:50:20.699Z,12.50
2024-02-18T15:52:47.948Z,10.35
2024-02-18T15:55:15.803Z,9.77
2024-02-18T15:57:43.096Z,9.75
2024-02-18T16:00:12.423Z,9.63
2024-02-18T16:02:39.964Z,8.52
2024-02-18T16:05:08.380Z,9.43
2024-02-18T16:07:37.285Z,7.82
2024-02-18T16:10:05.747Z,10.02
2024-02-18T16:12:33.047Z,10.55
2024-02-18T16:15:00.300Z,11.40
2024-02-18T16:20:16.707Z,9.07
2024-02-18T16:22:45.680Z,9.93
2024-02-18T16:25:13.964Z,10.38
2024-02-18T16:27:41.812Z,11.00
2024-02-18T16:30:12.001Z,10.88
2024-02-18T16:32:39.262Z,10.05
2024-02-18T16:35:07.309Z,15.20
2024-02-18T16:37:34.825Z,14.48
2024-02-18T16:40:05.194Z,14.27
2024-02-18T16:42:32.799Z,12.98
2024-02-18T16:45:00.431Z,10.52
2024-02-18T16:47:27.768Z,9.98
2024-02-18T16:49:55.297Z,12.27
2024-02-18T16:52:23.015Z,12.07
2024-02-18T16:54:50.287Z,13.25
2024-02-18T16:57:21.121Z,12.95
2024-02-18T16:59:48.706Z,13.85
2024-02-18T17:02:16.251Z,12.88
2024-02-18T17:04:43.822Z,12.07
2024-02-18T17:07:11.352Z,12.48
2024-02-18T17:09:38.778Z,12.80
2024-02-18T17:12:07.632Z,13.70
2024-02-18T17:14:36.689Z,13.25
2024-02-18T17:17:04.012Z,13.70
2024-02-18T17:19:31.459Z,14.93
2024-02-18T17:21:59.197Z,15.20
2024-02-18T17:24:26.603Z,15.93
2024-02-18T17:26:53.916Z,18.25
2024-02-18T17:29:22.025Z,17.95
2024-02-18T17:31:50.960Z,18.80
2024-02-18T17:34:18.690Z,26.10
2024-02-18T17:36:46.337Z,20.92
2024-02-18T17:39:13.755Z,28.80
2024-02-18T17:41:41.261Z,30.13
2024-02-18T17:44:08.579Z,29.92
2024-02-18T17:46:36.025Z,40.85
2024-02-18T17:49:04.853Z,37.80
2024-02-18T17:51:32.509Z,40.42
2024-02-18T17:54:00.012Z,44.60
2024-02-18T17:56:28.436Z,53.13
2024-02-18T17:58:56.880Z,51.50
2024-02-18T18:01:24.884Z,50.22
2024-02-18T18:03:52.431Z,46.50
2024-02-18T18:06:21.121Z,41.08
2024-02-18T18:08:48.398Z,40.80
2024-02-18T18:11:16.043Z,40.17
2024-02-18T18:13:49.493Z,38.58
2024-02-18T18:16:20.317Z,43.50
2024-02-18T18:18:53.097Z,42.83
2024-02-18T18:21:45.084Z,47.42
2024-02-18T18:24:12.533Z,46.38
2024-02-18T18:26:39.755Z,49.78
2024-02-18T18:29:06.999Z,48.88
2024-02-18T18:31:34.463Z,62.42
2024-02-18T18:34:01.979Z,54.00
2024-02-18T18:36:29.501Z,50.42
2024-02-18T18:38:58.213Z,44.15
2024-02-18T18:41:25.537Z,42.45
2024-02-18T18:43:53.128Z,49.35
2024-02-18T18:46:20.499Z,47.35
2024-02-18T18:48:48.220Z,63.35
2024-02-18T18:51:15.805Z,82.07
2024-02-18T18:53:43.055Z,62.08
2024-02-18T18:56:13.703Z,65.15
2024-02-18T18:58:44.954Z,61.45
2024-02-18T19:01:12.237Z,64.50
2024-02-18T19:03:39.625Z,64.97
2024-02-18T19:06:07.905Z,67.90
2024-02-18T19:08:35.265Z,71.63
2024-02-18T19:11:02.722Z,65.65
2024-02-18T19:16:05.671Z,67.80
2024-02-18T19:18:33.382Z,69.13
2024-02-18T19:21:00.866Z,61.40
2024-02-18T19:23:28.290Z,62.65
2024-02-18T19:25:55.785Z,63.45
2024-02-18T19:28:23.268Z,59.67
2024-02-18T19:30:52.219Z,59.80
2024-02-18T19:33:19.711Z,60.72
2024-02-18T19:35:47.121Z,57.17
2024-02-18T19:38:14.428Z,58.67
2024-02-18T19:40:41.819Z,61.63
2024-02-18T19:43:09.209Z,59.15
2024-02-18T19:45:36.688Z,57.65
2024-02-18T19:48:07.044Z,58.45
2024-02-18T19:50:34.449Z,56.58
2024-02-18T19:55:47.212Z,57.60
2024-02-18T19:58:14.927Z,52.78
2024-02-18T20:00:42.596Z,53.22
2024-02-18T20:03:11.781Z,55.28
2024-02-18T20:05:39.065Z,60.45
2024-02-18T20:08:07.120Z,69.03
2024-02-18T20:10:34.391Z,69.03
2024-02-18T20:13:01.584Z,69.38
2024-02-18T20:15:29.055Z,56.92
2024-02-18T20:17:56.655Z,55.15
2024-02-18T20:20:25.553Z,53.97
2024-02-18T20:22:53.075Z,58.50
2024-02-18T20:25:20.960Z,65.13
2024-02-18T20:27:48.462Z,62.67
2024-02-18T20:30:17.592Z,63.78
2024-02-18T20:32:45.320Z,59.28
2024-02-18T20:35:12.775Z,59.53
2024-02-18T20:37:41.425Z,56.22
2024-02-18T20:40:10.306Z,60.42
2024-02-18T20:42:37.927Z,62.40
2024-02-18T20:45:06.985Z,66.68
2024-02-18T20:47:34.537Z,63.65
2024-02-18T20:50:02.158Z,61.28
2024-02-18T20:52:36.571Z,57.38
2024-02-18T20:55:05.935Z,55.13
2024-02-18T20:57:33.185Z,51.95
2024-02-18T21:00:00.808Z,46.50
2024-02-18T21:02:28.286Z,45.85
2024-02-18T21:04:55.737Z,45.03
2024-02-18T21:07:23.176Z,39.75
2024-02-18T21:09:50.501Z,42.00
2024-02-18T21:12:19.177Z,37.30
2024-02-18T21:14:46.711Z,35.88
2024-02-18T21:17:14.082Z,35.67
2024-02-18T21:19:41.417Z,36.58
2024-02-18T21:22:08.698Z,36.10
2024-02-18T21:24:35.959Z,36.55
2024-02-18T21:27:03.713Z,37.80
2024-02-18T21:29:32.524Z,37.50
2024-02-18T21:32:00.121Z,36.78
2024-02-18T21:34:27.426Z,37.45
2024-02-18T21:36:55.113Z,39.45
2024-02-18T21:39:29.381Z,35.53
2024-02-18T21:42:04.567Z,32.50
2024-02-18T21:44:33.297Z,37.80
2024-02-18T21:47:00.632Z,34.47
2024-02-18T21:49:28.124Z,34.70
2024-02-18T21:51:55.486Z,34.35
2024-02-18T21:54:22.940Z,33.88
2024-02-18T21:56:50.318Z,36.00
2024-02-18T21:59:18.189Z,33.70
2024-02-18T22:01:47.102Z,30.48
2024-02-18T22:04:14.790Z,30.50
2024-02-18T22:06:55.102Z,33.85
2024-02-18T22:09:29.962Z,37.50
2024-02-18T22:11:57.325Z,39.97
2024-02-18T22:14:24.631Z,33.28
2024-02-18T22:16:53.572Z,34.05
2024-02-18T22:19:21.246Z,35.70
2024-02-18T22:21:48.749Z,36.25
2024-02-18T22:24:16.195Z,38.30
2024-02-18T22:26:43.954Z,39.13
2024-02-18T22:29:11.264Z,43.88
2024-02-18T22:31:38.697Z,37.58
2024-02-18T22:34:07.533Z,35.08
2024-02-18T22:36:34.910Z,31.02
2024-02-18T22:39:02.402Z,31.25
2024-02-18T22:41:29.741Z,30.05
2024-02-18T22:43:57.178Z,30.92
2024-02-18T22:46:24.608Z,29.48
2024-02-18T22:48:52.060Z,29.38
2024-02-18T22:51:20.907Z,28.95
2024-02-18T22:53:48.198Z,29.30
2024-02-18T22:56:15.541Z,27.15
2024-02-18T22:58:42.780Z,27.15
2024-02-18T23:01:10.332Z,27.90
2024-02-18T23:03:37.761Z,29.90
2024-02-18T23:06:05.575Z,29.20
2024-02-18T23:08:35.231Z,28.33
2024-02-18T23:11:03.522Z,27.90
2024-02-18T23:13:30.825Z,27.50
2024-02-18T23:15:58.300Z,26.20
2024-02-18T23:18:28.049Z,29.60
2024-02-18T23:20:55.655Z,27.40
2024-02-18T23:23:23.185Z,28.00
2024-02-18T23:25:51.964Z,27.48
2024-02-18T23:28:19.711Z,23.88
2024-02-18T23:30:47.273Z,27.35
2024-02-18T23:33:14.823Z,25.45
2024-02-18T23:35:42.269Z,26.85
2024-02-18T23:38:09.737Z,25.45
2024-02-18T23:40:37.273Z,26.17
2024-02-18T23:43:06.221Z,28.50
2024-02-18T23:45:33.660Z,28.13
2024-02-18T23:48:01.037Z,26.45
2024-02-18T23:50:28.239Z,27.58
2024-02-18T23:52:55.514Z,26.52
2024-02-18T23:55:22.929Z,26.65
2024-02-18T23:57:50.310Z,25.85
